Wyaconda, Missouri
Current Conditions -  °F | °C
As of 8:35 AM on Friday 28 Nov 2014 (Local Time) from KEOK Reporting Station
Clear Clear  
Wind Chill: 14°   Ceiling: Unl
Heat Index: 25°   Visibility: 10mi
Dew Point: 21°   Wind: 12mph
Humidity: 86%   Direction: 140°SE
Pressure: 30.08"   Gusts: NA
Location:  40.39°N, 91.93°W
Report Text: KEOK 281435Z AUTO 14010KT 10SM CLR M04/M06 A3008 RMK AO2
Loading
Personal Weather Stations






























Interactive Weather Map New forecast layout! Learn more

10-Day Weather Forecast

Advertisements
Track Severe Weather on mobile